sensor_id;sensor_type;location;lat;lon;timestamp;P1;durP1;ratioP1;P2;durP2;ratioP2
17953;SDS011;9102;53.548;9.926;2024-03-17T00:01:51;22.38;;;2.72;;
17953;SDS011;9102;53.548;9.926;2024-03-17T00:04:16;17.27;;;2.70;;
17953;SDS011;9102;53.548;9.926;2024-03-17T00:06:45;24.67;;;2.50;;
17953;SDS011;9102;53.548;9.926;2024-03-17T00:09:11;22.83;;;2.53;;
17953;SDS011;9102;53.548;9.926;2024-03-17T00:11:38;27.00;;;3.17;;
17953;SDS011;9102;53.548;9.926;2024-03-17T00:14:04;17.77;;;2.30;;
17953;SDS011;9102;53.548;9.926;2024-03-17T00:16:31;23.20;;;3.20;;
17953;SDS011;9102;53.548;9.926;2024-03-17T00:18:58;18.77;;;2.33;;
17953;SDS011;9102;53.548;9.926;2024-03-17T00:21:24;20.33;;;2.42;;
17953;SDS011;9102;53.548;9.926;2024-03-17T00:23:52;19.50;;;2.78;;
17953;SDS011;9102;53.548;9.926;2024-03-17T00:26:19;19.27;;;2.22;;
17953;SDS011;9102;53.548;9.926;2024-03-17T00:28:45;25.15;;;2.60;;
17953;SDS011;9102;53.548;9.926;2024-03-17T00:31:15;17.95;;;3.03;;
17953;SDS011;9102;53.548;9.926;2024-03-17T00:33:41;21.38;;;2.33;;
17953;SDS011;9102;53.548;9.926;2024-03-17T00:36:09;31.73;;;2.40;;
17953;SDS011;9102;53.548;9.926;2024-03-17T00:38:34;27.50;;;3.15;;
17953;SDS011;9102;53.548;9.926;2024-03-17T00:41:03;25.63;;;2.65;;
17953;SDS011;9102;53.548;9.926;2024-03-17T00:43:29;19.08;;;2.50;;
17953;SDS011;9102;53.548;9.926;2024-03-17T00:45:56;28.77;;;3.28;;
17953;SDS011;9102;53.548;9.926;2024-03-17T00:48:23;14.07;;;3.22;;
17953;SDS011;9102;53.548;9.926;2024-03-17T00:50:54;24.67;;;3.05;;
17953;SDS011;9102;53.548;9.926;2024-03-17T00:53:20;25.33;;;2.22;;
17953;SDS011;9102;53.548;9.926;2024-03-17T00:55:50;21.40;;;2.72;;
17953;SDS011;9102;53.548;9.926;2024-03-17T00:58:18;16.65;;;2.17;;
17953;SDS011;9102;53.548;9.926;2024-03-17T01:00:45;18.73;;;2.45;;
17953;SDS011;9102;53.548;9.926;2024-03-17T01:03:12;15.68;;;3.25;;
17953;SDS011;9102;53.548;9.926;2024-03-17T01:05:39;16.85;;;2.50;;
17953;SDS011;9102;53.548;9.926;2024-03-17T01:08:07;21.52;;;2.63;;
17953;SDS011;9102;53.548;9.926;2024-03-17T01:10:36;19.15;;;2.47;;
17953;SDS011;9102;53.548;9.926;2024-03-17T01:13:02;24.77;;;2.95;;
17953;SDS011;9102;53.548;9.926;2024-03-17T01:15:31;21.05;;;1.92;;
17953;SDS011;9102;53.548;9.926;2024-03-17T01:17:57;23.92;;;2.63;;
17953;SDS011;9102;53.548;9.926;2024-03-17T01:20:24;16.75;;;3.05;;
17953;SDS011;9102;53.548;9.926;2024-03-17T01:22:50;27.85;;;2.60;;
17953;SDS011;9102;53.548;9.926;2024-03-17T01:25:17;17.98;;;2.35;;
17953;SDS011;9102;53.548;9.926;2024-03-17T01:27:44;16.00;;;2.50;;
17953;SDS011;9102;53.548;9.926;2024-03-17T01:30:10;21.25;;;3.70;;
17953;SDS011;9102;53.548;9.926;2024-03-17T01:32:39;26.77;;;2.55;;
17953;SDS011;9102;53.548;9.926;2024-03-17T01:35:05;31.38;;;3.88;;
17953;SDS011;9102;53.548;9.926;2024-03-17T01:37:32;22.35;;;2.60;;
17953;SDS011;9102;53.548;9.926;2024-03-17T01:39:58;18.20;;;2.45;;
17953;SDS011;9102;53.548;9.926;2024-03-17T01:42:25;22.92;;;2.42;;
17953;SDS011;9102;53.548;9.926;2024-03-17T01:44:51;14.88;;;2.25;;
17953;SDS011;9102;53.548;9.926;2024-03-17T01:47:17;16.33;;;2.60;;
17953;SDS011;9102;53.548;9.926;2024-03-17T01:49:45;16.13;;;2.10;;
17953;SDS011;9102;53.548;9.926;2024-03-17T01:52:13;20.58;;;2.47;;
17953;SDS011;9102;53.548;9.926;2024-03-17T01:54:39;19.95;;;2.28;;
17953;SDS011;9102;53.548;9.926;2024-03-17T01:57:07;18.73;;;2.45;;
17953;SDS011;9102;53.548;9.926;2024-03-17T01:59:33;19.90;;;2.25;;
17953;SDS011;9102;53.548;9.926;2024-03-17T02:02:00;22.40;;;2.58;;
17953;SDS011;9102;53.548;9.926;2024-03-17T02:04:25;24.63;;;2.83;;
17953;SDS011;9102;53.548;9.926;2024-03-17T02:06:53;14.60;;;2.33;;
17953;SDS011;9102;53.548;9.926;2024-03-17T02:09:19;24.75;;;3.00;;
17953;SDS011;9102;53.548;9.926;2024-03-17T02:11:47;19.38;;;2.58;;
17953;SDS011;9102;53.548;9.926;2024-03-17T02:14:13;15.73;;;2.38;;
17953;SDS011;9102;53.548;9.926;2024-03-17T02:16:42;15.40;;;2.92;;
17953;SDS011;9102;53.548;9.926;2024-03-17T02:19:08;25.95;;;4.13;;
17953;SDS011;9102;53.548;9.926;2024-03-17T02:21:35;17.92;;;2.63;;
17953;SDS011;9102;53.548;9.926;2024-03-17T02:24:04;20.73;;;3.15;;
17953;SDS011;9102;53.548;9.926;2024-03-17T02:26:31;17.17;;;2.58;;
17953;SDS011;9102;53.548;9.926;2024-03-17T02:28:56;25.67;;;3.38;;
17953;SDS011;9102;53.548;9.926;2024-03-17T02:31:24;26.27;;;3.22;;
17953;SDS011;9102;53.548;9.926;2024-03-17T02:33:50;15.15;;;2.53;;
17953;SDS011;9102;53.548;9.926;2024-03-17T02:36:17;16.35;;;3.17;;
17953;SDS011;9102;53.548;9.926;2024-03-17T02:38:43;36.50;;;3.15;;
17953;SDS011;9102;53.548;9.926;2024-03-17T02:41:28;22.25;;;3.20;;
17953;SDS011;9102;53.548;9.926;2024-03-17T02:43:55;22.50;;;2.83;;
17953;SDS011;9102;53.548;9.926;2024-03-17T02:46:22;20.95;;;2.50;;
17953;SDS011;9102;53.548;9.926;2024-03-17T02:48:51;19.70;;;2.97;;
17953;SDS011;9102;53.548;9.926;2024-03-17T02:51:19;18.85;;;2.83;;
17953;SDS011;9102;53.548;9.926;2024-03-17T02:53:48;17.52;;;2.60;;
17953;SDS011;9102;53.548;9.926;2024-03-17T02:56:15;16.67;;;2.53;;
17953;SDS011;9102;53.548;9.926;2024-03-17T02:58:44;17.75;;;2.72;;
17953;SDS011;9102;53.548;9.926;2024-03-17T03:01:12;22.35;;;3.25;;
17953;SDS011;9102;53.548;9.926;2024-03-17T03:03:39;30.08;;;3.25;;
17953;SDS011;9102;53.548;9.926;2024-03-17T03:06:05;23.63;;;3.30;;
17953;SDS011;9102;53.548;9.926;2024-03-17T03:08:37;18.63;;;3.28;;
17953;SDS011;9102;53.548;9.926;2024-03-17T03:11:05;18.52;;;3.28;;
17953;SDS011;9102;53.548;9.926;2024-03-17T03:13:36;19.67;;;2.95;;
17953;SDS011;9102;53.548;9.926;2024-03-17T03:16:05;17.65;;;2.42;;
17953;SDS011;9102;53.548;9.926;2024-03-17T03:18:33;24.15;;;3.40;;
17953;SDS011;9102;53.548;9.926;2024-03-17T03:20:59;19.50;;;3.65;;
17953;SDS011;9102;53.548;9.926;2024-03-17T03:23:26;21.80;;;3.25;;
17953;SDS011;9102;53.548;9.926;2024-03-17T03:25:56;19.92;;;3.17;;
17953;SDS011;9102;53.548;9.926;2024-03-17T03:28:23;15.27;;;3.42;;
17953;SDS011;9102;53.548;9.926;2024-03-17T03:30:50;18.27;;;3.22;;
17953;SDS011;9102;53.548;9.926;2024-03-17T03:33:18;20.17;;;3.42;;
17953;SDS011;9102;53.548;9.926;2024-03-17T03:35:45;21.52;;;3.38;;
17953;SDS011;9102;53.548;9.926;2024-03-17T03:38:12;19.27;;;3.83;;
17953;SDS011;9102;53.548;9.926;2024-03-17T03:40:40;14.73;;;3.13;;
17953;SDS011;9102;53.548;9.926;2024-03-17T03:43:07;21.80;;;3.58;;
17953;SDS011;9102;53.548;9.926;2024-03-17T03:45:34;22.63;;;4.10;;
17953;SDS011;9102;53.548;9.926;2024-03-17T03:48:01;25.05;;;3.42;;
17953;SDS011;9102;53.548;9.926;2024-03-17T03:50:30;25.83;;;4.97;;
17953;SDS011;9102;53.548;9.926;2024-03-17T03:52:58;20.42;;;3.55;;
17953;SDS011;9102;53.548;9.926;2024-03-17T03:55:25;17.23;;;3.20;;
17953;SDS011;9102;53.548;9.926;2024-03-17T03:57:51;24.13;;;3.53;;
17953;SDS011;9102;53.548;9.926;2024-03-17T04:00:18;21.88;;;3.50;;
17953;SDS011;9102;53.548;9.926;2024-03-17T04:02:47;26.75;;;3.60;;
17953;SDS011;9102;53.548;9.926;2024-03-17T04:05:13;28.35;;;3.88;;
17953;SDS011;9102;53.548;9.926;2024-03-17T04:07:41;21.20;;;3.67;;
17953;SDS011;9102;53.548;9.926;2024-03-17T04:10:11;24.20;;;4.00;;
17953;SDS011;9102;53.548;9.926;2024-03-17T04:12:38;27.15;;;3.60;;
17953;SDS011;9102;53.548;9.926;2024-03-17T04:15:05;20.70;;;3.55;;
17953;SDS011;9102;53.548;9.926;2024-03-17T04:17:32;24.77;;;4.10;;
17953;SDS011;9102;53.548;9.926;2024-03-17T04:19:59;24.27;;;4.00;;
17953;SDS011;9102;53.548;9.926;2024-03-17T04:22:26;26.67;;;3.72;;
17953;SDS011;9102;53.548;9.926;2024-03-17T04:24:54;21.45;;;3.42;;
17953;SDS011;9102;53.548;9.926;2024-03-17T04:27:22;23.58;;;3.90;;
17953;SDS011;9102;53.548;9.926;2024-03-17T04:29:49;16.67;;;3.97;;
17953;SDS011;9102;53.548;9.926;2024-03-17T04:32:16;21.17;;;4.18;;
17953;SDS011;9102;53.548;9.926;2024-03-17T04:34:43;21.25;;;3.83;;
17953;SDS011;9102;53.548;9.926;2024-03-17T04:37:10;25.48;;;4.32;;
17953;SDS011;9102;53.548;9.926;2024-03-17T04:39:37;20.48;;;3.70;;
17953;SDS011;9102;53.548;9.926;2024-03-17T04:42:06;22.50;;;4.38;;
17953;SDS011;9102;53.548;9.926;2024-03-17T04:44:32;34.30;;;7.18;;
17953;SDS011;9102;53.548;9.926;2024-03-17T04:46:59;11.82;;;3.92;;
17953;SDS011;9102;53.548;9.926;2024-03-17T04:49:26;25.42;;;4.43;;
17953;SDS011;9102;53.548;9.926;2024-03-17T04:51:53;21.70;;;3.85;;
17953;SDS011;9102;53.548;9.926;2024-03-17T04:54:19;25.70;;;4.20;;
17953;SDS011;9102;53.548;9.926;2024-03-17T04:56:46;23.13;;;4.40;;
17953;SDS011;9102;53.548;9.926;2024-03-17T04:59:14;22.13;;;3.97;;
17953;SDS011;9102;53.548;9.926;2024-03-17T05:01:41;16.00;;;3.75;;
17953;SDS011;9102;53.548;9.926;2024-03-17T05:04:08;22.75;;;3.63;;
17953;SDS011;9102;53.548;9.926;2024-03-17T05:06:35;24.10;;;3.72;;
17953;SDS011;9102;53.548;9.926;2024-03-17T05:09:01;21.95;;;3.92;;
17953;SDS011;9102;53.548;9.926;2024-03-17T05:11:29;24.10;;;3.80;;
17953;SDS011;9102;53.548;9.926;2024-03-17T05:13:58;18.50;;;3.70;;
17953;SDS011;9102;53.548;9.926;2024-03-17T05:16:26;29.27;;;4.35;;
17953;SDS011;9102;53.548;9.926;2024-03-17T05:18:54;20.63;;;4.20;;
17953;SDS011;9102;53.548;9.926;2024-03-17T05:21:21;21.20;;;4.30;;
17953;SDS011;9102;53.548;9.926;2024-03-17T05:23:48;20.15;;;4.10;;
17953;SDS011;9102;53.548;9.926;2024-03-17T05:26:15;18.67;;;3.95;;
17953;SDS011;9102;53.548;9.926;2024-03-17T05:28:42;26.50;;;4.43;;
17953;SDS011;9102;53.548;9.926;2024-03-17T05:31:09;23.45;;;4.20;;
17953;SDS011;9102;53.548;9.926;2024-03-17T05:33:41;19.33;;;4.80;;
17953;SDS011;9102;53.548;9.926;2024-03-17T05:36:07;21.48;;;4.35;;
17953;SDS011;9102;53.548;9.926;2024-03-17T05:38:36;25.70;;;5.47;;
17953;SDS011;9102;53.548;9.926;2024-03-17T05:41:04;22.42;;;4.88;;
17953;SDS011;9102;53.548;9.926;2024-03-17T05:43:32;24.60;;;4.93;;
17953;SDS011;9102;53.548;9.926;2024-03-17T05:46:01;33.33;;;6.05;;
17953;SDS011;9102;53.548;9.926;2024-03-17T05:48:29;28.95;;;5.53;;
17953;SDS011;9102;53.548;9.926;2024-03-17T05:50:57;25.60;;;6.28;;
17953;SDS011;9102;53.548;9.926;2024-03-17T05:53:23;24.00;;;5.40;;
17953;SDS011;9102;53.548;9.926;2024-03-17T05:55:50;23.75;;;7.00;;
17953;SDS011;9102;53.548;9.926;2024-03-17T05:58:17;27.20;;;5.05;;
17953;SDS011;9102;53.548;9.926;2024-03-17T06:00:44;28.40;;;5.35;;
17953;SDS011;9102;53.548;9.926;2024-03-17T06:03:11;19.88;;;5.43;;
17953;SDS011;9102;53.548;9.926;2024-03-17T06:05:39;25.65;;;6.05;;
17953;SDS011;9102;53.548;9.926;2024-03-17T06:08:08;27.30;;;5.13;;
17953;SDS011;9102;53.548;9.926;2024-03-17T06:10:36;24.85;;;5.22;;
17953;SDS011;9102;53.548;9.926;2024-03-17T06:13:05;18.05;;;4.85;;
17953;SDS011;9102;53.548;9.926;2024-03-17T06:15:32;24.60;;;5.28;;
17953;SDS011;9102;53.548;9.926;2024-03-17T06:18:00;31.25;;;5.60;;
17953;SDS011;9102;53.548;9.926;2024-03-17T06:20:28;17.52;;;5.18;;
17953;SDS011;9102;53.548;9.926;2024-03-17T06:22:55;17.95;;;5.10;;
17953;SDS011;9102;53.548;9.926;2024-03-17T06:25:24;28.02;;;5.93;;
17953;SDS011;9102;53.548;9.926;2024-03-17T06:27:50;25.58;;;5.10;;
17953;SDS011;9102;53.548;9.926;2024-03-17T06:30:17;21.27;;;5.07;;
17953;SDS011;9102;53.548;9.926;2024-03-17T06:32:45;29.67;;;5.35;;
17953;SDS011;9102;53.548;9.926;2024-03-17T06:35:12;28.50;;;5.47;;
17953;SDS011;9102;53.548;9.926;2024-03-17T06:37:40;28.63;;;5.32;;
17953;SDS011;9102;53.548;9.926;2024-03-17T06:40:07;17.77;;;5.32;;
17953;SDS011;9102;53.548;9.926;2024-03-17T06:42:38;29.52;;;5.43;;
17953;SDS011;9102;53.548;9.926;2024-03-17T06:45:05;26.00;;;5.35;;
17953;SDS011;9102;53.548;9.926;2024-03-17T06:47:33;25.70;;;5.40;;
17953;SDS011;9102;53.548;9.926;2024-03-17T06:50:00;21.25;;;4.90;;
17953;SDS011;9102;53.548;9.926;2024-03-17T06:52:26;17.38;;;4.53;;
17953;SDS011;9102;53.548;9.926;2024-03-17T06:54:53;20.25;;;4.60;;
17953;SDS011;9102;53.548;9.926;2024-03-17T06:57:20;20.63;;;4.63;;
17953;SDS011;9102;53.548;9.926;2024-03-17T06:59:48;22.00;;;4.22;;
17953;SDS011;9102;53.548;9.926;2024-03-17T07:02:15;24.52;;;5.32;;
17953;SDS011;9102;53.548;9.926;2024-03-17T07:04:45;21.50;;;3.80;;
17953;SDS011;9102;53.548;9.926;2024-03-17T07:07:12;20.77;;;3.97;;
17953;SDS011;9102;53.548;9.926;2024-03-17T07:09:39;19.13;;;3.58;;
17953;SDS011;9102;53.548;9.926;2024-03-17T07:12:06;21.40;;;4.20;;
17953;SDS011;9102;53.548;9.926;2024-03-17T07:14:33;14.30;;;3.13;;
17953;SDS011;9102;53.548;9.926;2024-03-17T07:17:01;16.70;;;3.22;;
17953;SDS011;9102;53.548;9.926;2024-03-17T07:19:28;18.40;;;3.05;;
17953;SDS011;9102;53.548;9.926;2024-03-17T07:21:56;15.82;;;2.78;;
17953;SDS011;9102;53.548;9.926;2024-03-17T07:24:22;15.20;;;3.05;;
17953;SDS011;9102;53.548;9.926;2024-03-17T07:26:49;18.02;;;2.58;;
17953;SDS011;9102;53.548;9.926;2024-03-17T07:29:16;14.57;;;2.40;;
17953;SDS011;9102;53.548;9.926;2024-03-17T07:31:44;15.48;;;3.60;;
17953;SDS011;9102;53.548;9.926;2024-03-17T07:34:12;18.30;;;4.00;;
17953;SDS011;9102;53.548;9.926;2024-03-17T07:36:39;17.58;;;2.75;;
17953;SDS011;9102;53.548;9.926;2024-03-17T07:39:06;17.83;;;2.50;;
17953;SDS011;9102;53.548;9.926;2024-03-17T07:41:33;14.70;;;3.28;;
17953;SDS011;9102;53.548;9.926;2024-03-17T07:43:59;21.70;;;3.10;;
17953;SDS011;9102;53.548;9.926;2024-03-17T07:46:26;11.85;;;2.70;;
17953;SDS011;9102;53.548;9.926;2024-03-17T07:48:53;22.75;;;5.07;;
17953;SDS011;9102;53.548;9.926;2024-03-17T07:51:21;17.50;;;3.13;;
17953;SDS011;9102;53.548;9.926;2024-03-17T07:53:48;15.43;;;3.47;;
17953;SDS011;9102;53.548;9.926;2024-03-17T07:56:16;17.23;;;4.25;;
17953;SDS011;9102;53.548;9.926;2024-03-17T07:58:44;17.27;;;3.53;;
17953;SDS011;9102;53.548;9.926;2024-03-17T08:01:13;17.73;;;3.28;;
17953;SDS011;9102;53.548;9.926;2024-03-17T08:03:41;27.50;;;4.75;;
17953;SDS011;9102;53.548;9.926;2024-03-17T08:06:10;17.50;;;4.20;;
17953;SDS011;9102;53.548;9.926;2024-03-17T08:08:38;19.85;;;3.95;;
17953;SDS011;9102;53.548;9.926;2024-03-17T08:11:06;13.50;;;2.47;;
17953;SDS011;9102;53.548;9.926;2024-03-17T08:13:32;11.13;;;1.83;;
17953;SDS011;9102;53.548;9.926;2024-03-17T08:16:00;16.80;;;2.03;;
17953;SDS011;9102;53.548;9.926;2024-03-17T08:18:28;13.93;;;2.53;;
17953;SDS011;9102;53.548;9.926;2024-03-17T08:20:55;10.38;;;2.40;;
17953;SDS011;9102;53.548;9.926;2024-03-17T08:23:22;11.13;;;1.45;;
17953;SDS011;9102;53.548;9.926;2024-03-17T08:25:53;12.75;;;1.55;;
17953;SDS011;9102;53.548;9.926;2024-03-17T08:28:20;11.10;;;1.63;;
17953;SDS011;9102;53.548;9.926;2024-03-17T08:30:50;7.72;;;1.52;;
17953;SDS011;9102;53.548;9.926;2024-03-17T08:33:18;12.18;;;1.58;;
17953;SDS011;9102;53.548;9.926;2024-03-17T08:35:52;11.18;;;1.52;;
17953;SDS011;9102;53.548;9.926;2024-03-17T08:38:19;12.73;;;1.40;;
17953;SDS011;9102;53.548;9.926;2024-03-17T08:40:48;13.98;;;1.35;;
17953;SDS011;9102;53.548;9.926;2024-03-17T08:43:16;12.50;;;1.40;;
17953;SDS011;9102;53.548;9.926;2024-03-17T08:45:42;12.20;;;2.10;;
17953;SDS011;9102;53.548;9.926;2024-03-17T08:48:09;8.93;;;1.42;;
17953;SDS011;9102;53.548;9.926;2024-03-17T08:50:36;11.25;;;1.77;;
17953;SDS011;9102;53.548;9.926;2024-03-17T08:53:03;14.98;;;1.55;;
17953;SDS011;9102;53.548;9.926;2024-03-17T08:55:30;16.25;;;1.75;;
17953;SDS011;9102;53.548;9.926;2024-03-17T08:57:57;7.22;;;1.55;;
17953;SDS011;9102;53.548;9.926;2024-03-17T09:00:25;9.40;;;1.48;;
17953;SDS011;9102;53.548;9.926;2024-03-17T09:02:51;6.32;;;1.35;;
17953;SDS011;9102;53.548;9.926;2024-03-17T09:05:18;10.63;;;1.33;;
17953;SDS011;9102;53.548;9.926;2024-03-17T09:07:45;9.32;;;1.23;;
17953;SDS011;9102;53.548;9.926;2024-03-17T09:10:11;12.35;;;1.60;;
17953;SDS011;9102;53.548;9.926;2024-03-17T09:12:38;11.30;;;1.73;;
17953;SDS011;9102;53.548;9.926;2024-03-17T09:15:06;10.13;;;1.40;;
17953;SDS011;9102;53.548;9.926;2024-03-17T09:17:34;9.18;;;1.35;;
17953;SDS011;9102;53.548;9.926;2024-03-17T09:20:01;13.05;;;1.50;;
17953;SDS011;9102;53.548;9.926;2024-03-17T09:22:28;8.45;;;1.30;;
17953;SDS011;9102;53.548;9.926;2024-03-17T09:24:55;7.50;;;0.90;;
17953;SDS011;9102;53.548;9.926;2024-03-17T09:27:21;8.48;;;1.42;;
17953;SDS011;9102;53.548;9.926;2024-03-17T09:29:50;8.15;;;1.45;;
17953;SDS011;9102;53.548;9.926;2024-03-17T09:32:17;12.65;;;1.30;;
17953;SDS011;9102;53.548;9.926;2024-03-17T09:34:47;5.10;;;1.10;;
17953;SDS011;9102;53.548;9.926;2024-03-17T09:37:14;7.85;;;1.45;;
17953;SDS011;9102;53.548;9.926;2024-03-17T09:39:41;10.57;;;1.50;;
17953;SDS011;9102;53.548;9.926;2024-03-17T09:42:09;9.98;;;1.40;;
17953;SDS011;9102;53.548;9.926;2024-03-17T09:44:43;12.63;;;2.20;;
17953;SDS011;9102;53.548;9.926;2024-03-17T09:47:12;9.85;;;1.63;;
17953;SDS011;9102;53.548;9.926;2024-03-17T09:49:46;12.15;;;1.65;;
17953;SDS011;9102;53.548;9.926;2024-03-17T09:52:18;7.40;;;1.40;;
17953;SDS011;9102;53.548;9.926;2024-03-17T09:54:47;3.72;;;1.05;;
17953;SDS011;9102;53.548;9.926;2024-03-17T09:57:20;9.40;;;1.23;;
17953;SDS011;9102;53.548;9.926;2024-03-17T09:59:50;14.45;;;1.38;;
17953;SDS011;9102;53.548;9.926;2024-03-17T10:02:18;8.77;;;1.40;;
17953;SDS011;9102;53.548;9.926;2024-03-17T10:04:44;5.07;;;1.00;;
17953;SDS011;9102;53.548;9.926;2024-03-17T10:07:13;11.82;;;1.20;;
17953;SDS011;9102;53.548;9.926;2024-03-17T10:09:40;6.72;;;1.10;;
17953;SDS011;9102;53.548;9.926;2024-03-17T10:12:23;8.73;;;1.10;;
17953;SDS011;9102;53.548;9.926;2024-03-17T10:14:58;7.40;;;1.30;;
17953;SDS011;9102;53.548;9.926;2024-03-17T10:17:31;5.97;;;1.25;;
17953;SDS011;9102;53.548;9.926;2024-03-17T10:20:12;6.82;;;1.33;;
17953;SDS011;9102;53.548;9.926;2024-03-17T10:23:00;11.65;;;1.25;;
17953;SDS011;9102;53.548;9.926;2024-03-17T10:25:29;10.20;;;1.33;;
17953;SDS011;9102;53.548;9.926;2024-03-17T10:27:57;7.65;;;1.45;;
17953;SDS011;9102;53.548;9.926;2024-03-17T10:30:24;5.93;;;1.15;;
17953;SDS011;9102;53.548;9.926;2024-03-17T10:32:53;10.15;;;1.48;;
17953;SDS011;9102;53.548;9.926;2024-03-17T10:35:25;8.80;;;1.10;;
17953;SDS011;9102;53.548;9.926;2024-03-17T10:37:56;10.75;;;1.20;;
17953;SDS011;9102;53.548;9.926;2024-03-17T10:40:26;7.03;;;1.55;;
17953;SDS011;9102;53.548;9.926;2024-03-17T10:42:55;7.95;;;1.17;;
17953;SDS011;9102;53.548;9.926;2024-03-17T10:45:23;6.78;;;1.40;;
17953;SDS011;9102;53.548;9.926;2024-03-17T10:47:51;8.70;;;1.40;;
17953;SDS011;9102;53.548;9.926;2024-03-17T10:50:19;7.45;;;1.30;;
17953;SDS011;9102;53.548;9.926;2024-03-17T10:52:46;9.43;;;1.83;;
17953;SDS011;9102;53.548;9.926;2024-03-17T10:55:22;8.25;;;1.65;;
17953;SDS011;9102;53.548;9.926;2024-03-17T10:57:52;12.32;;;1.33;;
17953;SDS011;9102;53.548;9.926;2024-03-17T11:00:21;6.45;;;1.15;;
17953;SDS011;9102;53.548;9.926;2024-03-17T11:02:49;7.88;;;1.33;;
17953;SDS011;9102;53.548;9.926;2024-03-17T11:05:20;8.68;;;1.27;;
17953;SDS011;9102;53.548;9.926;2024-03-17T11:07:50;7.93;;;2.13;;
17953;SDS011;9102;53.548;9.926;2024-03-17T11:10:20;5.95;;;1.35;;
17953;SDS011;9102;53.548;9.926;2024-03-17T11:12:49;11.18;;;1.92;;
17953;SDS011;9102;53.548;9.926;2024-03-17T11:20:58;7.60;;;1.40;;
17953;SDS011;9102;53.548;9.926;2024-03-17T11:23:33;3.78;;;1.20;;
17953;SDS011;9102;53.548;9.926;2024-03-17T11:26:02;8.25;;;1.60;;
17953;SDS011;9102;53.548;9.926;2024-03-17T11:28:48;12.27;;;1.70;;
17953;SDS011;9102;53.548;9.926;2024-03-17T11:37:08;11.73;;;3.03;;
17953;SDS011;9102;53.548;9.926;2024-03-17T11:40:22;15.48;;;4.72;;
17953;SDS011;9102;53.548;9.926;2024-03-17T11:43:00;11.75;;;2.03;;
17953;SDS011;9102;53.548;9.926;2024-03-17T11:45:26;4.70;;;1.10;;
17953;SDS011;9102;53.548;9.926;2024-03-17T11:47:54;8.40;;;1.27;;
17953;SDS011;9102;53.548;9.926;2024-03-17T11:50:20;10.35;;;1.30;;
17953;SDS011;9102;53.548;9.926;2024-03-17T11:52:57;8.15;;;1.17;;
17953;SDS011;9102;53.548;9.926;2024-03-17T11:55:23;10.40;;;1.52;;
17953;SDS011;9102;53.548;9.926;2024-03-17T11:57:55;6.25;;;1.52;;
17953;SDS011;9102;53.548;9.926;2024-03-17T12:00:21;7.45;;;2.10;;
17953;SDS011;9102;53.548;9.926;2024-03-17T12:02:49;12.00;;;1.10;;
17953;SDS011;9102;53.548;9.926;2024-03-17T12:05:17;12.80;;;1.85;;
17953;SDS011;9102;53.548;9.926;2024-03-17T12:07:46;11.55;;;1.48;;
17953;SDS011;9102;53.548;9.926;2024-03-17T12:10:12;8.70;;;1.10;;
17953;SDS011;9102;53.548;9.926;2024-03-17T12:12:39;14.07;;;1.67;;
17953;SDS011;9102;53.548;9.926;2024-03-17T12:15:13;7.07;;;1.38;;
17953;SDS011;9102;53.548;9.926;2024-03-17T12:17:43;8.38;;;1.45;;
17953;SDS011;9102;53.548;9.926;2024-03-17T12:20:17;6.25;;;1.10;;
17953;SDS011;9102;53.548;9.926;2024-03-17T12:22:44;9.07;;;2.53;;
17953;SDS011;9102;53.548;9.926;2024-03-17T12:25:15;7.57;;;1.42;;
17953;SDS011;9102;53.548;9.926;2024-03-17T12:27:43;8.32;;;1.42;;
17953;SDS011;9102;53.548;9.926;2024-03-17T12:30:10;10.20;;;1.50;;
17953;SDS011;9102;53.548;9.926;2024-03-17T12:32:38;8.27;;;1.33;;
17953;SDS011;9102;53.548;9.926;2024-03-17T12:35:09;5.78;;;1.35;;
17953;SDS011;9102;53.548;9.926;2024-03-17T12:37:42;9.20;;;1.52;;
17953;SDS011;9102;53.548;9.926;2024-03-17T12:40:15;7.85;;;1.25;;
17953;SDS011;9102;53.548;9.926;2024-03-17T12:42:47;6.07;;;1.40;;
17953;SDS011;9102;53.548;9.926;2024-03-17T12:45:14;7.72;;;1.73;;
17953;SDS011;9102;53.548;9.926;2024-03-17T12:47:40;12.65;;;1.77;;
17953;SDS011;9102;53.548;9.926;2024-03-17T12:50:13;13.23;;;1.75;;
17953;SDS011;9102;53.548;9.926;2024-03-17T12:52:43;8.90;;;1.73;;
17953;SDS011;9102;53.548;9.926;2024-03-17T12:55:18;10.90;;;1.77;;
17953;SDS011;9102;53.548;9.926;2024-03-17T12:58:06;21.20;;;5.18;;
17953;SDS011;9102;53.548;9.926;2024-03-17T13:00:56;8.43;;;2.03;;
17953;SDS011;9102;53.548;9.926;2024-03-17T13:03:24;10.02;;;1.75;;
17953;SDS011;9102;53.548;9.926;2024-03-17T13:05:52;11.60;;;1.48;;
17953;SDS011;9102;53.548;9.926;2024-03-17T13:08:20;8.88;;;1.80;;
17953;SDS011;9102;53.548;9.926;2024-03-17T13:10:47;8.40;;;1.60;;
17953;SDS011;9102;53.548;9.926;2024-03-17T13:13:14;5.97;;;1.70;;
17953;SDS011;9102;53.548;9.926;2024-03-17T13:15:42;10.18;;;1.70;;
17953;SDS011;9102;53.548;9.926;2024-03-17T13:18:11;9.60;;;1.55;;
17953;SDS011;9102;53.548;9.926;2024-03-17T13:20:43;7.93;;;1.27;;
17953;SDS011;9102;53.548;9.926;2024-03-17T13:23:10;6.38;;;2.22;;
17953;SDS011;9102;53.548;9.926;2024-03-17T13:25:38;11.13;;;3.53;;
17953;SDS011;9102;53.548;9.926;2024-03-17T13:28:08;8.57;;;1.60;;
17953;SDS011;9102;53.548;9.926;2024-03-17T13:30:35;12.07;;;1.85;;
17953;SDS011;9102;53.548;9.926;2024-03-17T13:33:02;5.88;;;1.25;;
17953;SDS011;9102;53.548;9.926;2024-03-17T13:35:33;6.63;;;1.38;;
17953;SDS011;9102;53.548;9.926;2024-03-17T13:38:04;8.10;;;1.50;;
17953;SDS011;9102;53.548;9.926;2024-03-17T13:40:31;7.95;;;1.45;;
17953;SDS011;9102;53.548;9.926;2024-03-17T13:43:00;6.85;;;1.50;;
17953;SDS011;9102;53.548;9.926;2024-03-17T13:45:27;11.32;;;1.58;;
17953;SDS011;9102;53.548;9.926;2024-03-17T13:47:56;12.88;;;1.77;;
17953;SDS011;9102;53.548;9.926;2024-03-17T13:50:24;9.88;;;2.05;;
17953;SDS011;9102;53.548;9.926;2024-03-17T13:52:51;14.07;;;1.70;;
17953;SDS011;9102;53.548;9.926;2024-03-17T13:55:18;13.05;;;1.58;;
17953;SDS011;9102;53.548;9.926;2024-03-17T13:57:47;13.77;;;1.65;;
17953;SDS011;9102;53.548;9.926;2024-03-17T14:00:17;17.80;;;2.33;;
17953;SDS011;9102;53.548;9.926;2024-03-17T14:02:46;7.20;;;1.50;;
17953;SDS011;9102;53.548;9.926;2024-03-17T14:05:14;7.28;;;1.42;;
17953;SDS011;9102;53.548;9.926;2024-03-17T14:07:42;4.30;;;1.38;;
17953;SDS011;9102;53.548;9.926;2024-03-17T14:10:12;14.00;;;2.15;;
17953;SDS011;9102;53.548;9.926;2024-03-17T14:12:40;10.38;;;1.77;;
17953;SDS011;9102;53.548;9.926;2024-03-17T14:15:07;12.30;;;1.92;;
17953;SDS011;9102;53.548;9.926;2024-03-17T14:17:38;10.18;;;1.48;;
17953;SDS011;9102;53.548;9.926;2024-03-17T14:20:05;9.73;;;1.98;;
17953;SDS011;9102;53.548;9.926;2024-03-17T14:22:34;11.48;;;2.25;;
17953;SDS011;9102;53.548;9.926;2024-03-17T14:25:01;10.60;;;1.80;;
17953;SDS011;9102;53.548;9.926;2024-03-17T14:27:28;16.35;;;2.10;;
17953;SDS011;9102;53.548;9.926;2024-03-17T14:29:55;8.88;;;2.08;;
17953;SDS011;9102;53.548;9.926;2024-03-17T14:32:22;11.65;;;1.80;;
17953;SDS011;9102;53.548;9.926;2024-03-17T14:34:50;8.85;;;1.95;;
17953;SDS011;9102;53.548;9.926;2024-03-17T14:37:17;9.48;;;1.75;;
17953;SDS011;9102;53.548;9.926;2024-03-17T14:39:43;7.40;;;1.45;;
17953;SDS011;9102;53.548;9.926;2024-03-17T14:42:10;10.88;;;1.58;;
17953;SDS011;9102;53.548;9.926;2024-03-17T14:44:38;8.75;;;1.98;;
17953;SDS011;9102;53.548;9.926;2024-03-17T14:47:04;9.15;;;1.65;;
17953;SDS011;9102;53.548;9.926;2024-03-17T14:49:32;7.50;;;1.73;;
17953;SDS011;9102;53.548;9.926;2024-03-17T14:52:00;6.50;;;1.33;;
17953;SDS011;9102;53.548;9.926;2024-03-17T14:54:27;9.65;;;1.60;;
17953;SDS011;9102;53.548;9.926;2024-03-17T14:56:54;8.02;;;1.60;;
17953;SDS011;9102;53.548;9.926;2024-03-17T14:59:20;8.52;;;1.48;;
17953;SDS011;9102;53.548;9.926;2024-03-17T15:01:47;8.23;;;2.08;;
17953;SDS011;9102;53.548;9.926;2024-03-17T15:04:14;13.02;;;1.77;;
17953;SDS011;9102;53.548;9.926;2024-03-17T15:06:43;9.48;;;1.55;;
17953;SDS011;9102;53.548;9.926;2024-03-17T15:09:11;5.65;;;1.40;;